createdAt,value
2023-01-18T00:00:10.872Z,991.23
2023-01-18T00:00:37.274Z,991.53
2023-01-18T00:00:57.618Z,991.53
2023-01-18T00:01:29.120Z,991.53
2023-01-18T00:02:01.170Z,991.63
2023-01-18T00:02:33.186Z,991.63
2023-01-18T00:03:05.006Z,991.63
2023-01-18T00:03:37.263Z,991.63
2023-01-18T00:04:09.093Z,991.43
2023-01-18T00:04:37.416Z,991.43
2023-01-18T00:04:57.292Z,991.43
2023-01-18T00:05:29.521Z,991.43
2023-01-18T00:06:01.063Z,991.43
2023-01-18T00:06:33.472Z,991.43
2023-01-18T00:07:05.261Z,991.63
2023-01-18T00:07:37.317Z,991.63
2023-01-18T00:08:09.078Z,991.53
2023-01-18T00:08:37.269Z,991.33
2023-01-18T00:08:57.142Z,991.33
2023-01-18T00:09:28.891Z,991.33
2023-01-18T00:10:02.107Z,991.53
2023-01-18T00:10:33.339Z,991.53
2023-01-18T00:11:05.256Z,991.33
2023-01-18T00:11:36.947Z,991.33
2023-01-18T00:12:09.258Z,991.33
2023-01-18T00:12:37.317Z,991.43
2023-01-18T00:12:57.510Z,991.43
2023-01-18T00:13:28.906Z,991.43
2023-01-18T00:14:01.659Z,991.33
2023-01-18T00:14:33.382Z,991.33
2023-01-18T00:15:06.510Z,991.23
2023-01-18T00:15:37.608Z,991.23
2023-01-18T00:16:09.717Z,991.53
2023-01-18T00:16:37.668Z,991.43
2023-01-18T00:16:57.358Z,991.43
2023-01-18T00:17:29.941Z,991.43
2023-01-18T00:18:02.501Z,991.33
2023-01-18T00:18:34.551Z,991.33
2023-01-18T00:19:05.257Z,991.43
2023-01-18T00:19:37.613Z,991.43
2023-01-18T00:20:10.117Z,991.43
2023-01-18T00:20:39.208Z,991.53
2023-01-18T00:20:58.007Z,991.53
2023-01-18T00:21:29.287Z,991.53
2023-01-18T00:22:01.817Z,991.63
2023-01-18T00:22:34.962Z,991.63
2023-01-18T00:23:06.749Z,991.53
2023-01-18T00:23:38.416Z,991.53
2023-01-18T00:24:09.405Z,991.43
2023-01-18T00:24:37.265Z,991.33
2023-01-18T00:24:57.555Z,991.33
2023-01-18T00:25:29.304Z,991.33
2023-01-18T00:26:01.229Z,991.33
2023-01-18T00:26:34.337Z,991.33
2023-01-18T00:27:06.157Z,991.63
2023-01-18T00:27:38.049Z,991.63
2023-01-18T00:28:09.786Z,991.53
2023-01-18T00:28:38.823Z,991.53
2023-01-18T00:28:58.899Z,991.53
2023-01-18T00:29:29.374Z,991.53
2023-01-18T00:30:03.084Z,991.63
2023-01-18T00:30:33.430Z,991.63
2023-01-18T00:31:05.742Z,991.63
2023-01-18T00:31:39.006Z,991.63
2023-01-18T00:32:09.925Z,991.63
2023-01-18T00:32:37.853Z,991.53
2023-01-18T00:32:57.622Z,991.53
2023-01-18T00:33:29.010Z,991.53
2023-01-18T00:34:01.580Z,991.63
2023-01-18T00:34:33.631Z,991.63
2023-01-18T00:35:07.099Z,991.63
2023-01-18T00:35:38.182Z,991.63
2023-01-18T00:36:10.967Z,991.53
2023-01-18T00:36:39.358Z,991.63
2023-01-18T00:36:57.482Z,991.63
2023-01-18T00:37:29.857Z,991.63
2023-01-18T00:38:02.729Z,991.74
2023-01-18T00:38:33.368Z,991.74
2023-01-18T00:39:05.506Z,991.74
2023-01-18T00:39:37.485Z,991.74
2023-01-18T00:40:10.869Z,991.63
2023-01-18T00:40:37.973Z,991.53
2023-01-18T00:40:57.633Z,991.53
2023-01-18T00:41:29.206Z,991.53
2023-01-18T00:42:02.595Z,991.53
2023-01-18T00:42:33.827Z,991.53
2023-01-18T00:43:05.902Z,991.74
2023-01-18T00:43:37.792Z,991.74
2023-01-18T00:44:09.837Z,991.84
2023-01-18T00:44:38.482Z,991.63
2023-01-18T00:44:57.658Z,991.63
2023-01-18T00:45:30.404Z,991.63
2023-01-18T00:46:01.733Z,991.84
2023-01-18T00:46:33.831Z,991.84
2023-01-18T00:47:05.362Z,991.74
2023-01-18T00:47:37.307Z,991.74
2023-01-18T00:48:09.340Z,991.74
2023-01-18T00:48:37.184Z,991.74
2023-01-18T00:48:57.035Z,991.74
2023-01-18T00:49:29.001Z,991.74
2023-01-18T00:50:02.049Z,991.43
2023-01-18T00:50:33.268Z,991.43
2023-01-18T00:51:05.098Z,991.63
2023-01-18T00:51:37.141Z,991.63
2023-01-18T00:52:09.753Z,991.74
2023-01-18T00:52:37.209Z,991.94
2023-01-18T00:52:57.967Z,991.94
2023-01-18T00:53:28.977Z,991.94
2023-01-18T00:54:01.123Z,991.84
2023-01-18T00:54:33.303Z,991.84
2023-01-18T00:55:06.136Z,991.74
2023-01-18T00:55:37.215Z,991.74
2023-01-18T00:56:09.108Z,991.63
2023-01-18T00:56:38.179Z,991.84
2023-01-18T00:56:57.847Z,991.84
2023-01-18T00:57:29.644Z,991.84
2023-01-18T00:58:02.192Z,991.84
2023-01-18T00:58:33.459Z,991.84
2023-01-18T00:59:05.415Z,991.84
2023-01-18T00:59:37.935Z,991.84
2023-01-18T01:00:12.894Z,991.74
2023-01-18T01:00:39.088Z,991.84
2023-01-18T01:00:58.005Z,991.84
2023-01-18T01:01:31.499Z,991.84
2023-01-18T01:02:01.769Z,992.04
2023-01-18T01:02:33.748Z,992.04
2023-01-18T01:03:05.693Z,991.94
2023-01-18T01:03:38.451Z,991.94
2023-01-18T01:04:10.553Z,991.94
2023-01-18T01:04:38.511Z,992.04
2023-01-18T01:04:58.273Z,992.04
2023-01-18T01:05:30.063Z,992.04
2023-01-18T01:06:03.119Z,991.84
2023-01-18T01:06:33.767Z,991.84
2023-01-18T01:07:05.182Z,991.84
2023-01-18T01:07:39.299Z,991.84
2023-01-18T01:08:09.766Z,991.94
2023-01-18T01:08:37.217Z,991.84
2023-01-18T01:08:57.341Z,991.84
2023-01-18T01:09:29.782Z,991.84
2023-01-18T01:10:04.491Z,991.63
2023-01-18T01:10:34.100Z,991.63
2023-01-18T01:11:05.043Z,992.04
2023-01-18T01:11:38.212Z,992.04
2023-01-18T01:12:10.011Z,991.94
2023-01-18T01:12:37.929Z,991.94
2023-01-18T01:12:58.033Z,991.94
2023-01-18T01:13:29.776Z,991.94
2023-01-18T01:14:01.691Z,991.94
2023-01-18T01:14:34.937Z,991.94
2023-01-18T01:15:07.345Z,991.84
2023-01-18T01:15:37.765Z,991.84
2023-01-18T01:16:09.750Z,991.84
2023-01-18T01:16:38.031Z,991.74
2023-01-18T01:16:57.897Z,991.74
2023-01-18T01:17:29.439Z,991.74
2023-01-18T01:18:01.285Z,991.84
2023-01-18T01:18:33.334Z,991.84
2023-01-18T01:19:06.183Z,991.63
2023-01-18T01:19:37.502Z,991.63
2023-01-18T01:20:10.759Z,991.84
2023-01-18T01:20:38.221Z,991.74
2023-01-18T01:20:57.976Z,991.74
2023-01-18T01:21:29.271Z,991.74
2023-01-18T01:22:01.655Z,991.94
2023-01-18T01:22:33.574Z,991.94
2023-01-18T01:23:05.705Z,991.74
2023-01-18T01:23:39.245Z,991.74
2023-01-18T01:24:09.717Z,991.84
2023-01-18T01:24:37.995Z,991.84
2023-01-18T01:24:57.572Z,991.84
2023-01-18T01:25:30.095Z,991.84
2023-01-18T01:26:01.644Z,991.63
2023-01-18T01:26:33.707Z,991.63
2023-01-18T01:27:05.395Z,991.84
2023-01-18T01:27:38.795Z,991.84
2023-01-18T01:28:10.564Z,991.74
2023-01-18T01:28:38.701Z,991.53
2023-01-18T01:28:57.640Z,991.53
2023-01-18T01:29:30.625Z,991.53
2023-01-18T01:30:03.326Z,991.74
2023-01-18T01:30:33.370Z,991.74
2023-01-18T01:31:05.203Z,991.74
2023-01-18T01:31:36.950Z,991.74
2023-01-18T01:32:09.233Z,991.53
2023-01-18T01:32:37.215Z,991.63
2023-01-18T01:32:57.892Z,991.63
2023-01-18T01:33:29.123Z,991.63
2023-01-18T01:34:01.105Z,991.74
2023-01-18T01:34:33.279Z,991.74
2023-01-18T01:35:06.393Z,991.74
2023-01-18T01:35:37.324Z,991.74
2023-01-18T01:36:09.221Z,991.53
2023-01-18T01:36:40.292Z,991.74
2023-01-18T01:36:58.798Z,991.74
2023-01-18T01:37:29.766Z,991.74
2023-01-18T01:38:03.152Z,991.74
2023-01-18T01:38:33.269Z,991.74
2023-01-18T01:39:05.113Z,991.74
2023-01-18T01:39:37.058Z,991.74
2023-01-18T01:40:09.611Z,991.53
2023-01-18T01:40:37.299Z,991.74
2023-01-18T01:40:57.565Z,991.74
2023-01-18T01:41:29.010Z,991.74
2023-01-18T01:42:01.017Z,991.74
2023-01-18T01:42:36.091Z,991.74
2023-01-18T01:43:05.151Z,991.43
2023-01-18T01:43:38.039Z,991.43
2023-01-18T01:44:10.241Z,991.84
2023-01-18T01:44:37.215Z,991.84
2023-01-18T01:44:57.326Z,991.84
2023-01-18T01:45:31.540Z,991.84
2023-01-18T01:46:01.263Z,991.53
2023-01-18T01:46:33.349Z,991.53
2023-01-18T01:47:05.049Z,991.63
2023-01-18T01:47:39.739Z,991.63
2023-01-18T01:48:09.033Z,991.53
2023-01-18T01:48:37.356Z,991.84
2023-01-18T01:48:57.128Z,991.84
2023-01-18T01:49:29.152Z,991.84
2023-01-18T01:50:02.141Z,991.84
2023-01-18T01:50:33.285Z,991.84
2023-01-18T01:51:05.048Z,991.84
2023-01-18T01:51:36.980Z,991.84
2023-01-18T01:52:09.373Z,991.74
2023-01-18T01:52:37.277Z,991.84
2023-01-18T01:52:57.600Z,991.84
2023-01-18T01:53:29.114Z,991.84
2023-01-18T01:54:01.084Z,991.63
2023-01-18T01:54:33.393Z,991.63
2023-01-18T01:55:06.383Z,991.63
2023-01-18T01:55:43.979Z,991.53
2023-01-18T01:56:09.529Z,991.53
2023-01-18T01:56:37.915Z,991.74
2023-01-18T01:56:59.000Z,991.74
2023-01-18T01:57:29.449Z,991.74
2023-01-18T01:58:10.067Z,991.63
2023-01-18T01:58:34.154Z,991.63
2023-01-18T01:59:05.803Z,991.43
2023-01-18T01:59:38.411Z,991.43
2023-01-18T02:00:11.831Z,991.53
2023-01-18T02:00:39.627Z,991.74
2023-01-18T02:00:57.984Z,991.74
2023-01-18T02:01:31.444Z,991.74
2023-01-18T02:02:02.259Z,991.53
2023-01-18T02:02:33.488Z,991.53
2023-01-18T02:03:05.043Z,991.43
2023-01-18T02:03:38.177Z,991.43
2023-01-18T02:04:09.325Z,991.43
2023-01-18T02:04:37.569Z,991.43
2023-01-18T02:04:57.035Z,991.43
2023-01-18T02:05:29.616Z,991.43
2023-01-18T02:06:01.365Z,991.63
2023-01-18T02:06:33.277Z,991.63
2023-01-18T02:07:05.129Z,991.84
2023-01-18T02:07:37.692Z,991.84
2023-01-18T02:08:09.379Z,991.53
2023-01-18T02:08:37.599Z,991.63
2023-01-18T02:08:57.405Z,991.63
2023-01-18T02:09:29.098Z,991.63
2023-01-18T02:10:01.964Z,991.53
2023-01-18T02:10:33.313Z,991.53
2023-01-18T02:11:05.255Z,991.53
2023-01-18T02:11:37.438Z,991.53
2023-01-18T02:12:09.141Z,991.63
2023-01-18T02:12:39.579Z,991.74
2023-01-18T02:12:57.595Z,991.74
2023-01-18T02:13:29.373Z,991.74
2023-01-18T02:14:02.199Z,991.84
2023-01-18T02:14:34.318Z,991.84
2023-01-18T02:15:08.055Z,991.74
2023-01-18T02:15:37.630Z,991.74
2023-01-18T02:16:09.991Z,991.63
2023-01-18T02:16:37.890Z,991.74
2023-01-18T02:16:57.292Z,991.74
2023-01-18T02:17:29.048Z,991.74
2023-01-18T02:18:01.268Z,991.74
2023-01-18T02:18:33.471Z,991.74
2023-01-18T02:19:05.143Z,991.74
2023-01-18T02:19:36.959Z,991.74
2023-01-18T02:20:09.739Z,991.74
2023-01-18T02:20:37.888Z,991.63
2023-01-18T02:20:57.487Z,991.63
2023-01-18T02:21:29.099Z,991.63
2023-01-18T02:22:01.135Z,991.94
2023-01-18T02:22:33.258Z,991.94
2023-01-18T02:23:05.092Z,991.74
2023-01-18T02:23:38.408Z,991.74
2023-01-18T02:24:09.379Z,991.63
2023-01-18T02:24:37.103Z,991.84
2023-01-18T02:24:58.928Z,991.84
2023-01-18T02:25:29.632Z,991.84
2023-01-18T02:26:01.411Z,991.63
2023-01-18T02:26:33.536Z,991.63
2023-01-18T02:27:05.357Z,992.04
2023-01-18T02:27:37.076Z,992.04
2023-01-18T02:28:09.334Z,991.74
2023-01-18T02:28:37.367Z,991.84
2023-01-18T02:28:57.367Z,991.84
2023-01-18T02:29:29.109Z,991.84
2023-01-18T02:30:03.033Z,991.74
2023-01-18T02:30:33.594Z,991.74
2023-01-18T02:31:05.263Z,991.74
2023-01-18T02:31:37.108Z,991.74
2023-01-18T02:32:09.387Z,991.84
2023-01-18T02:32:37.220Z,991.84
2023-01-18T02:32:57.447Z,991.84
2023-01-18T02:33:29.071Z,991.84
2023-01-18T02:34:01.535Z,991.53
2023-01-18T02:34:34.600Z,991.53
2023-01-18T02:35:06.300Z,991.63
2023-01-18T02:35:37.297Z,991.63
2023-01-18T02:36:09.551Z,991.84
2023-01-18T02:36:37.185Z,991.74
2023-01-18T02:36:57.580Z,991.74
2023-01-18T02:37:29.324Z,991.74
2023-01-18T02:38:01.874Z,991.53
2023-01-18T02:38:33.346Z,991.53
2023-01-18T02:39:06.510Z,991.84
2023-01-18T02:39:38.467Z,991.84
2023-01-18T02:40:09.773Z,991.84
2023-01-18T02:40:37.229Z,991.63
2023-01-18T02:40:58.221Z,991.63
2023-01-18T02:41:29.483Z,991.63
2023-01-18T02:42:01.647Z,991.63
2023-01-18T02:42:34.268Z,991.63
2023-01-18T02:43:05.943Z,991.74
2023-01-18T02:43:37.705Z,991.74
2023-01-18T02:44:14.760Z,991.53
2023-01-18T02:44:37.745Z,991.74
2023-01-18T02:44:58.034Z,991.74
2023-01-18T02:45:30.492Z,991.74
2023-01-18T02:46:01.867Z,991.53
2023-01-18T02:46:33.615Z,991.53
2023-01-18T02:47:05.668Z,991.63
2023-01-18T02:47:37.055Z,991.63
2023-01-18T02:48:11.623Z,991.53
2023-01-18T02:48:46.428Z,991.53
2023-01-18T02:48:57.392Z,991.53
2023-01-18T02:49:29.247Z,991.53
2023-01-18T02:50:02.474Z,991.63
2023-01-18T02:50:33.957Z,991.63
2023-01-18T02:51:05.158Z,991.74
2023-01-18T02:51:37.156Z,991.74
2023-01-18T02:52:09.339Z,991.63
2023-01-18T02:52:37.555Z,991.53
2023-01-18T02:52:57.720Z,991.53
2023-01-18T02:53:29.375Z,991.53
2023-01-18T02:54:01.310Z,991.43
2023-01-18T02:54:33.423Z,991.43
2023-01-18T02:55:06.175Z,991.43
2023-01-18T02:55:37.241Z,991.43
2023-01-18T02:56:09.368Z,991.33
2023-01-18T02:56:37.237Z,991.53
2023-01-18T02:56:57.814Z,991.53
2023-01-18T02:57:29.230Z,991.53
2023-01-18T02:58:01.294Z,991.74
2023-01-18T02:58:33.411Z,991.74
2023-01-18T02:59:05.432Z,991.43
2023-01-18T02:59:37.179Z,991.43
2023-01-18T03:00:10.368Z,991.53
2023-01-18T03:00:37.277Z,991.43
2023-01-18T03:00:58.451Z,991.43
2023-01-18T03:01:29.458Z,991.43
2023-01-18T03:02:01.137Z,991.53
2023-01-18T03:02:33.375Z,991.53
2023-01-18T03:03:05.351Z,991.43
2023-01-18T03:03:37.201Z,991.43
2023-01-18T03:04:09.211Z,991.43
2023-01-18T03:04:37.471Z,991.33
2023-01-18T03:04:57.192Z,991.33
2023-01-18T03:05:29.784Z,991.33
2023-01-18T03:06:01.544Z,991.53
2023-01-18T03:06:33.379Z,991.53
2023-01-18T03:07:05.097Z,991.63
2023-01-18T03:07:37.170Z,991.63
2023-01-18T03:08:09.391Z,991.53
2023-01-18T03:08:37.219Z,991.53
2023-01-18T03:08:57.076Z,991.53
2023-01-18T03:09:29.129Z,991.53
2023-01-18T03:10:02.685Z,991.74
2023-01-18T03:10:33.417Z,991.74
2023-01-18T03:11:05.241Z,991.53
2023-01-18T03:11:37.230Z,991.53
2023-01-18T03:12:09.266Z,991.74
2023-01-18T03:12:37.166Z,991.63
2023-01-18T03:12:57.969Z,991.63
2023-01-18T03:13:29.111Z,991.63
2023-01-18T03:14:01.489Z,991.63
2023-01-18T03:14:33.420Z,991.63
2023-01-18T03:15:07.100Z,991.43
2023-01-18T03:15:37.459Z,991.43
2023-01-18T03:16:10.468Z,991.53
2023-01-18T03:16:37.524Z,991.53
2023-01-18T03:16:57.735Z,991.53
2023-01-18T03:17:29.803Z,991.53
2023-01-18T03:18:03.017Z,991.63
2023-01-18T03:18:34.581Z,991.63
2023-01-18T03:19:06.175Z,991.84
2023-01-18T03:19:38.006Z,991.84
2023-01-18T03:20:11.050Z,991.84
2023-01-18T03:20:38.367Z,991.74
2023-01-18T03:20:57.741Z,991.74
2023-01-18T03:21:29.103Z,991.74
2023-01-18T03:22:01.720Z,991.63
2023-01-18T03:22:34.782Z,991.63
2023-01-18T03:23:05.406Z,991.84
2023-01-18T03:23:37.392Z,991.84
2023-01-18T03:24:10.017Z,991.74
2023-01-18T03:24:37.825Z,991.74
2023-01-18T03:24:57.323Z,991.74
2023-01-18T03:25:29.916Z,991.74
2023-01-18T03:26:01.566Z,991.84
2023-01-18T03:26:33.540Z,991.84
2023-01-18T03:27:06.905Z,991.74
2023-01-18T03:27:37.501Z,991.74
2023-01-18T03:28:09.939Z,991.74
2023-01-18T03:28:38.709Z,991.74
2023-01-18T03:28:58.333Z,991.74
2023-01-18T03:29:29.400Z,991.74
2023-01-18T03:30:04.360Z,991.63
2023-01-18T03:30:34.464Z,991.63
2023-01-18T03:31:05.928Z,991.84
2023-01-18T03:31:39.860Z,991.84
2023-01-18T03:32:09.818Z,991.53
2023-01-18T03:32:37.836Z,991.74
2023-01-18T03:32:58.925Z,991.74
2023-01-18T03:33:29.519Z,991.74
2023-01-18T03:34:01.414Z,991.84
2023-01-18T03:34:34.032Z,991.84
2023-01-18T03:35:06.599Z,991.74
2023-01-18T03:35:37.248Z,991.74
2023-01-18T03:36:10.309Z,991.84
2023-01-18T03:36:38.410Z,991.74
2023-01-18T03:36:57.840Z,991.74
2023-01-18T03:37:30.894Z,991.74
2023-01-18T03:38:01.918Z,991.94
2023-01-18T03:38:33.474Z,991.94
2023-01-18T03:39:05.655Z,991.63
2023-01-18T03:39:38.525Z,991.63
2023-01-18T03:40:11.177Z,991.84
2023-01-18T03:40:39.365Z,991.53
2023-01-18T03:40:57.928Z,991.53
2023-01-18T03:41:29.627Z,991.53
2023-01-18T03:42:03.342Z,991.94
2023-01-18T03:42:33.310Z,991.94
2023-01-18T03:43:05.518Z,991.84
2023-01-18T03:43:37.491Z,991.84
2023-01-18T03:44:09.848Z,991.74
2023-01-18T03:44:37.670Z,991.74
2023-01-18T03:44:57.576Z,991.74
2023-01-18T03:45:30.708Z,991.74
2023-01-18T03:46:02.370Z,991.74
2023-01-18T03:46:35.461Z,991.74
2023-01-18T03:47:05.834Z,991.63
2023-01-18T03:47:38.043Z,991.63
2023-01-18T03:48:09.501Z,991.63
2023-01-18T03:48:38.350Z,991.63
2023-01-18T03:48:57.881Z,991.63
2023-01-18T03:49:29.243Z,991.63
2023-01-18T03:50:03.414Z,991.63
2023-01-18T03:50:33.843Z,991.63
2023-01-18T03:51:06.909Z,991.84
2023-01-18T03:51:38.407Z,991.84
2023-01-18T03:52:10.303Z,991.63
2023-01-18T03:52:38.031Z,991.63
2023-01-18T03:52:57.783Z,991.63
2023-01-18T03:53:29.510Z,991.63
2023-01-18T03:54:01.584Z,991.74
2023-01-18T03:54:33.584Z,991.74
2023-01-18T03:55:07.567Z,991.84
2023-01-18T03:55:39.756Z,991.84
2023-01-18T03:56:09.783Z,991.74
2023-01-18T03:56:37.886Z,991.84
2023-01-18T03:56:57.308Z,991.84
2023-01-18T03:57:29.784Z,991.84
2023-01-18T03:58:01.597Z,991.74
2023-01-18T03:58:34.365Z,991.74
2023-01-18T03:59:07.005Z,991.74
2023-01-18T03:59:37.389Z,991.74
2023-01-18T04:00:11.474Z,991.74
2023-01-18T04:00:38.070Z,991.74
2023-01-18T04:00:58.198Z,991.74
2023-01-18T04:01:29.421Z,991.74
2023-01-18T04:02:01.672Z,991.63
2023-01-18T04:02:34.247Z,991.63
2023-01-18T04:03:05.711Z,991.74
2023-01-18T04:03:39.695Z,991.74
2023-01-18T04:04:10.275Z,991.84
2023-01-18T04:04:37.677Z,991.74
2023-01-18T04:04:58.598Z,991.74
2023-01-18T04:05:29.606Z,991.74
2023-01-18T04:06:01.410Z,991.84
2023-01-18T04:06:34.064Z,991.84
2023-01-18T04:07:05.812Z,991.53
2023-01-18T04:07:37.117Z,991.53
2023-01-18T04:08:09.410Z,991.74
2023-01-18T04:08:37.351Z,991.84
2023-01-18T04:08:57.270Z,991.84
2023-01-18T04:09:29.438Z,991.84
2023-01-18T04:10:02.064Z,991.94
2023-01-18T04:10:33.585Z,991.94
2023-01-18T04:11:05.179Z,991.74
2023-01-18T04:11:37.279Z,991.74
2023-01-18T04:12:23.816Z,991.84
2023-01-18T04:12:41.323Z,991.74
2023-01-18T04:13:13.805Z,991.74
2023-01-18T04:13:37.377Z,991.74
2023-01-18T04:14:01.215Z,991.74
2023-01-18T04:14:34.859Z,991.74
2023-01-18T04:15:06.846Z,991.53
2023-01-18T04:15:38.061Z,991.53
2023-01-18T04:16:09.933Z,991.84
2023-01-18T04:16:37.790Z,991.53
2023-01-18T04:16:57.599Z,991.53
2023-01-18T04:17:29.712Z,991.53
2023-01-18T04:18:02.205Z,991.53
2023-01-18T04:18:35.713Z,991.53
2023-01-18T04:19:05.782Z,991.74
2023-01-18T04:19:37.410Z,991.74
2023-01-18T04:20:10.301Z,991.53
2023-01-18T04:20:38.083Z,991.94
2023-01-18T04:20:58.226Z,991.94
2023-01-18T04:21:30.281Z,991.94
2023-01-18T04:22:02.186Z,991.74
2023-01-18T04:22:34.482Z,991.74
2023-01-18T04:23:07.104Z,991.84
2023-01-18T04:23:38.634Z,991.84
2023-01-18T04:24:10.327Z,991.94
2023-01-18T04:24:40.651Z,991.84
2023-01-18T04:24:57.581Z,991.84
2023-01-18T04:25:30.125Z,991.84
2023-01-18T04:26:01.868Z,991.74
2023-01-18T04:26:34.782Z,991.74
2023-01-18T04:27:06.938Z,991.63
2023-01-18T04:27:42.909Z,991.63
2023-01-18T04:28:14.881Z,991.74
2023-01-18T04:28:37.263Z,991.84
2023-01-18T04:28:57.371Z,991.84
2023-01-18T04:29:29.233Z,991.84
2023-01-18T04:30:02.855Z,991.74
2023-01-18T04:30:33.523Z,991.74
2023-01-18T04:31:05.400Z,991.94
2023-01-18T04:31:37.764Z,991.94
2023-01-18T04:32:09.331Z,991.84
2023-01-18T04:32:37.883Z,991.74
2023-01-18T04:32:57.577Z,991.74
2023-01-18T04:33:31.879Z,991.74
2023-01-18T04:34:02.544Z,991.53
2023-01-18T04:34:33.595Z,991.53
2023-01-18T04:35:06.328Z,991.74
2023-01-18T04:35:38.884Z,991.74
2023-01-18T04:36:10.963Z,991.74
2023-01-18T04:36:39.687Z,991.63
2023-01-18T04:36:57.341Z,991.63
2023-01-18T04:37:30.615Z,991.63
2023-01-18T04:38:01.871Z,991.84
2023-01-18T04:38:33.795Z,991.84
2023-01-18T04:39:05.438Z,991.74
2023-01-18T04:39:37.589Z,991.74
2023-01-18T04:40:10.118Z,991.63
2023-01-18T04:40:39.031Z,991.74
2023-01-18T04:40:58.804Z,991.74
2023-01-18T04:41:30.502Z,991.74
2023-01-18T04:42:03.050Z,991.84
2023-01-18T04:42:34.428Z,991.84
2023-01-18T04:43:05.635Z,991.74
2023-01-18T04:43:37.280Z,991.74
2023-01-18T04:44:09.704Z,991.53
2023-01-18T04:44:37.499Z,991.74
2023-01-18T04:44:57.296Z,991.74
2023-01-18T04:45:31.478Z,991.74
2023-01-18T04:46:02.842Z,991.94
2023-01-18T04:46:34.665Z,991.94
2023-01-18T04:47:05.988Z,991.84
2023-01-18T04:47:37.490Z,991.84
2023-01-18T04:48:09.459Z,991.74
2023-01-18T04:48:38.014Z,991.74
2023-01-18T04:48:57.581Z,991.74
2023-01-18T04:49:29.588Z,991.74
2023-01-18T04:50:01.939Z,991.84
2023-01-18T04:50:33.512Z,991.84
2023-01-18T04:51:05.406Z,991.74
2023-01-18T04:51:37.266Z,991.74
2023-01-18T04:52:09.209Z,991.63
2023-01-18T04:52:37.344Z,991.74
2023-01-18T04:52:57.707Z,991.74
2023-01-18T04:53:29.179Z,991.74
2023-01-18T04:54:01.293Z,991.94
2023-01-18T04:54:33.405Z,991.94
2023-01-18T04:55:06.418Z,991.94
2023-01-18T04:55:37.203Z,991.94
2023-01-18T04:56:09.319Z,991.94
2023-01-18T04:56:37.788Z,992.04
2023-01-18T04:56:58.068Z,992.04
2023-01-18T04:57:29.672Z,992.04
2023-01-18T04:58:01.459Z,991.94
2023-01-18T04:58:33.516Z,991.94
2023-01-18T04:59:05.338Z,991.94
2023-01-18T04:59:37.244Z,991.94
2023-01-18T05:00:10.831Z,991.94
2023-01-18T05:00:37.612Z,991.84
2023-01-18T05:00:57.757Z,991.84
2023-01-18T05:01:29.390Z,991.84
2023-01-18T05:02:01.431Z,991.94
2023-01-18T05:02:33.389Z,991.94
2023-01-18T05:03:05.167Z,991.94
2023-01-18T05:03:37.270Z,991.94
2023-01-18T05:04:09.506Z,992.04
2023-01-18T05:04:37.254Z,992.11
2023-01-18T05:04:57.502Z,992.11
2023-01-18T05:05:29.758Z,992.11
2023-01-18T05:06:01.478Z,991.84
2023-01-18T05:06:33.297Z,991.84
2023-01-18T05:07:05.308Z,991.74
2023-01-18T05:07:37.597Z,991.74
2023-01-18T05:08:09.466Z,991.94
2023-01-18T05:08:37.330Z,991.94
2023-01-18T05:08:57.358Z,991.94
2023-01-18T05:09:29.465Z,991.94
2023-01-18T05:10:02.328Z,991.94
2023-01-18T05:10:33.574Z,991.94
2023-01-18T05:11:05.640Z,992.04
2023-01-18T05:11:37.810Z,992.04
2023-01-18T05:12:09.319Z,991.84
2023-01-18T05:12:37.797Z,991.94
2023-01-18T05:12:57.868Z,991.94
2023-01-18T05:13:29.610Z,991.94
2023-01-18T05:14:01.255Z,991.84
2023-01-18T05:14:33.390Z,991.84
2023-01-18T05:15:07.100Z,991.94
2023-01-18T05:15:37.665Z,991.94
2023-01-18T05:16:09.607Z,991.94
2023-01-18T05:16:38.812Z,992.04
2023-01-18T05:16:57.709Z,992.04
2023-01-18T05:17:29.318Z,992.04
2023-01-18T05:18:01.583Z,991.74
2023-01-18T05:18:33.449Z,991.74
2023-01-18T05:19:05.163Z,991.94
2023-01-18T05:19:37.336Z,991.94
2023-01-18T05:20:10.086Z,991.94
2023-01-18T05:20:38.320Z,991.94
2023-01-18T05:20:58.423Z,991.94
2023-01-18T05:21:29.411Z,991.94
2023-01-18T05:22:01.591Z,991.94
2023-01-18T05:22:33.446Z,991.94
2023-01-18T05:23:05.182Z,992.21
2023-01-18T05:23:37.158Z,992.21
2023-01-18T05:24:09.398Z,991.94
2023-01-18T05:24:37.350Z,991.94
2023-01-18T05:24:57.407Z,991.94
2023-01-18T05:25:29.763Z,991.94
2023-01-18T05:26:01.996Z,992.04
2023-01-18T05:26:34.176Z,992.04
2023-01-18T05:27:05.511Z,992.04
2023-01-18T05:27:39.437Z,992.04
2023-01-18T05:28:11.005Z,991.94
2023-01-18T05:28:37.730Z,991.94
2023-01-18T05:28:57.552Z,991.94
2023-01-18T05:29:31.323Z,991.94
2023-01-18T05:30:06.520Z,991.74
2023-01-18T05:30:34.153Z,991.74
2023-01-18T05:31:05.891Z,991.94
2023-01-18T05:31:38.000Z,991.94
2023-01-18T05:32:09.284Z,991.94
2023-01-18T05:32:37.557Z,992.04
2023-01-18T05:32:57.881Z,992.04
2023-01-18T05:33:29.231Z,992.04
2023-01-18T05:34:01.320Z,992.04
2023-01-18T05:34:33.439Z,992.04
2023-01-18T05:35:06.722Z,992.11
2023-01-18T05:35:37.168Z,992.11
2023-01-18T05:36:09.519Z,991.94
2023-01-18T05:36:37.846Z,991.94
2023-01-18T05:36:57.706Z,991.94
2023-01-18T05:37:29.886Z,991.94
2023-01-18T05:38:02.029Z,991.74
2023-01-18T05:38:34.355Z,991.74
2023-01-18T05:39:06.029Z,991.74
2023-01-18T05:39:37.615Z,991.74
2023-01-18T05:40:10.528Z,992.11
2023-01-18T05:40:38.075Z,991.94
2023-01-18T05:40:57.951Z,991.94
2023-01-18T05:41:30.157Z,991.94
2023-01-18T05:42:01.349Z,991.74
2023-01-18T05:42:34.012Z,991.74
2023-01-18T05:43:07.403Z,992.04
2023-01-18T05:43:37.818Z,992.04
2023-01-18T05:44:10.196Z,991.94
2023-01-18T05:44:39.374Z,991.84
2023-01-18T05:44:58.333Z,991.84
2023-01-18T05:45:30.697Z,991.84
2023-01-18T05:46:01.416Z,991.84
2023-01-18T05:46:33.803Z,991.84
2023-01-18T05:47:06.255Z,991.84
2023-01-18T05:47:39.491Z,991.84
2023-01-18T05:48:10.369Z,991.94
2023-01-18T05:48:37.884Z,992.04
2023-01-18T05:48:58.359Z,992.04
2023-01-18T05:49:29.613Z,992.04
2023-01-18T05:50:03.153Z,991.94
2023-01-18T05:50:34.035Z,991.94
2023-01-18T05:51:06.041Z,992.04
2023-01-18T05:51:39.661Z,992.04
2023-01-18T05:52:10.880Z,992.11
2023-01-18T05:52:38.017Z,992.04
2023-01-18T05:52:58.660Z,992.04
2023-01-18T05:53:29.394Z,992.04
2023-01-18T05:54:01.508Z,992.04
2023-01-18T05:54:33.384Z,992.04
2023-01-18T05:55:06.623Z,991.94
2023-01-18T05:55:37.313Z,991.94
2023-01-18T05:56:09.755Z,992.11
2023-01-18T05:56:37.469Z,992.11
2023-01-18T05:56:57.561Z,992.11
2023-01-18T05:57:29.575Z,992.11
2023-01-18T05:58:01.312Z,992.11
2023-01-18T05:58:33.385Z,992.11
2023-01-18T05:59:05.419Z,991.94
2023-01-18T05:59:37.329Z,991.94
2023-01-18T06:00:10.557Z,992.04
2023-01-18T06:00:37.327Z,992.11
2023-01-18T06:00:58.219Z,992.11
2023-01-18T06:01:29.663Z,992.11
2023-01-18T06:02:01.597Z,992.11
2023-01-18T06:02:33.629Z,992.11
2023-01-18T06:03:05.530Z,992.31
2023-01-18T06:03:37.467Z,992.31
2023-01-18T06:04:09.658Z,992.11
2023-01-18T06:04:37.598Z,992.21
2023-01-18T06:04:57.304Z,992.21
2023-01-18T06:05:29.742Z,992.21
2023-01-18T06:06:01.677Z,992.31
2023-01-18T06:06:34.647Z,992.31
2023-01-18T06:07:05.477Z,992.21
2023-01-18T06:07:37.519Z,992.21
2023-01-18T06:08:09.770Z,992.11
2023-01-18T06:08:37.446Z,992.21
2023-01-18T06:08:57.428Z,992.21
2023-01-18T06:09:29.510Z,992.21
2023-01-18T06:10:02.277Z,992.11
2023-01-18T06:10:33.412Z,992.11
2023-01-18T06:11:05.295Z,992.41
2023-01-18T06:11:37.487Z,992.41
2023-01-18T06:12:09.534Z,992.21
2023-01-18T06:12:37.308Z,992.21
2023-01-18T06:12:57.907Z,992.21
2023-01-18T06:13:29.415Z,992.21
2023-01-18T06:14:01.376Z,992.31